sensor_id;sensor_type;location;lat;lon;timestamp;P1;durP1;ratioP1;P2;durP2;ratioP2
67696;SDS011;54486;51.442;6.778;2023-03-19T00:00:26;7.27;;;2.97;;
67696;SDS011;54486;51.442;6.778;2023-03-19T00:02:53;7.82;;;2.88;;
67696;SDS011;54486;51.442;6.778;2023-03-19T00:05:22;9.85;;;2.80;;
67696;SDS011;54486;51.442;6.778;2023-03-19T00:07:50;9.53;;;3.50;;
67696;SDS011;54486;51.442;6.778;2023-03-19T00:10:17;9.82;;;3.78;;
67696;SDS011;54486;51.442;6.778;2023-03-19T00:12:45;11.68;;;3.20;;
67696;SDS011;54486;51.442;6.778;2023-03-19T00:15:13;9.35;;;3.20;;
67696;SDS011;54486;51.442;6.778;2023-03-19T00:17:41;9.30;;;3.15;;
67696;SDS011;54486;51.442;6.778;2023-03-19T00:20:10;10.85;;;3.70;;
67696;SDS011;54486;51.442;6.778;2023-03-19T00:22:38;9.73;;;3.40;;
67696;SDS011;54486;51.442;6.778;2023-03-19T00:25:06;10.13;;;3.40;;
67696;SDS011;54486;51.442;6.778;2023-03-19T00:27:35;9.37;;;3.47;;
67696;SDS011;54486;51.442;6.778;2023-03-19T00:30:05;9.10;;;3.33;;
67696;SDS011;54486;51.442;6.778;2023-03-19T00:32:33;12.98;;;3.60;;
67696;SDS011;54486;51.442;6.778;2023-03-19T00:35:02;10.88;;;3.53;;
67696;SDS011;54486;51.442;6.778;2023-03-19T00:37:32;8.45;;;2.70;;
67696;SDS011;54486;51.442;6.778;2023-03-19T00:40:00;9.27;;;3.50;;
67696;SDS011;54486;51.442;6.778;2023-03-19T00:42:28;9.70;;;3.75;;
67696;SDS011;54486;51.442;6.778;2023-03-19T00:44:55;10.88;;;4.43;;
67696;SDS011;54486;51.442;6.778;2023-03-19T00:47:23;11.13;;;5.13;;
67696;SDS011;54486;51.442;6.778;2023-03-19T00:49:50;10.23;;;4.72;;
67696;SDS011;54486;51.442;6.778;2023-03-19T00:52:17;11.23;;;4.47;;
67696;SDS011;54486;51.442;6.778;2023-03-19T00:54:45;11.55;;;4.88;;
67696;SDS011;54486;51.442;6.778;2023-03-19T00:57:12;9.77;;;4.28;;
67696;SDS011;54486;51.442;6.778;2023-03-19T00:59:39;11.02;;;4.82;;
67696;SDS011;54486;51.442;6.778;2023-03-19T01:02:06;11.27;;;4.75;;
67696;SDS011;54486;51.442;6.778;2023-03-19T01:04:35;10.33;;;4.37;;
67696;SDS011;54486;51.442;6.778;2023-03-19T01:07:03;9.23;;;4.40;;
67696;SDS011;54486;51.442;6.778;2023-03-19T01:09:31;10.40;;;3.85;;
67696;SDS011;54486;51.442;6.778;2023-03-19T01:11:59;9.23;;;3.63;;
67696;SDS011;54486;51.442;6.778;2023-03-19T01:14:30;8.52;;;3.78;;
67696;SDS011;54486;51.442;6.778;2023-03-19T01:16:57;8.73;;;3.53;;
67696;SDS011;54486;51.442;6.778;2023-03-19T01:19:24;8.70;;;3.75;;
67696;SDS011;54486;51.442;6.778;2023-03-19T01:21:52;8.90;;;3.40;;
67696;SDS011;54486;51.442;6.778;2023-03-19T01:24:19;9.10;;;3.47;;
67696;SDS011;54486;51.442;6.778;2023-03-19T01:26:46;8.43;;;3.30;;
67696;SDS011;54486;51.442;6.778;2023-03-19T01:29:13;8.38;;;3.20;;
67696;SDS011;54486;51.442;6.778;2023-03-19T01:31:40;8.00;;;3.25;;
67696;SDS011;54486;51.442;6.778;2023-03-19T01:34:08;9.07;;;3.53;;
67696;SDS011;54486;51.442;6.778;2023-03-19T01:36:35;9.95;;;3.35;;
67696;SDS011;54486;51.442;6.778;2023-03-19T01:39:02;7.83;;;3.10;;
67696;SDS011;54486;51.442;6.778;2023-03-19T01:41:29;8.60;;;3.42;;
67696;SDS011;54486;51.442;6.778;2023-03-19T01:43:56;7.80;;;3.13;;
67696;SDS011;54486;51.442;6.778;2023-03-19T01:46:29;8.65;;;3.35;;
67696;SDS011;54486;51.442;6.778;2023-03-19T01:49:00;7.25;;;3.10;;
67696;SDS011;54486;51.442;6.778;2023-03-19T01:51:31;8.75;;;3.55;;
67696;SDS011;54486;51.442;6.778;2023-03-19T01:54:08;8.02;;;3.25;;
67696;SDS011;54486;51.442;6.778;2023-03-19T01:56:42;8.15;;;3.30;;
67696;SDS011;54486;51.442;6.778;2023-03-19T01:59:29;8.32;;;3.60;;
67696;SDS011;54486;51.442;6.778;2023-03-19T02:02:00;8.35;;;3.50;;
67696;SDS011;54486;51.442;6.778;2023-03-19T02:04:30;9.52;;;3.40;;
67696;SDS011;54486;51.442;6.778;2023-03-19T02:06:59;9.52;;;3.67;;
67696;SDS011;54486;51.442;6.778;2023-03-19T02:09:28;8.65;;;3.50;;
67696;SDS011;54486;51.442;6.778;2023-03-19T02:11:57;7.80;;;3.63;;
67696;SDS011;54486;51.442;6.778;2023-03-19T02:14:27;8.75;;;3.38;;
67696;SDS011;54486;51.442;6.778;2023-03-19T02:16:55;8.23;;;3.50;;
67696;SDS011;54486;51.442;6.778;2023-03-19T02:19:27;10.38;;;3.78;;
67696;SDS011;54486;51.442;6.778;2023-03-19T02:22:04;8.70;;;3.13;;
67696;SDS011;54486;51.442;6.778;2023-03-19T02:24:38;8.90;;;3.60;;
67696;SDS011;54486;51.442;6.778;2023-03-19T02:27:11;8.53;;;3.43;;
67696;SDS011;54486;51.442;6.778;2023-03-19T02:29:39;9.57;;;3.80;;
67696;SDS011;54486;51.442;6.778;2023-03-19T02:32:07;9.32;;;3.95;;
67696;SDS011;54486;51.442;6.778;2023-03-19T02:34:35;10.60;;;4.20;;
67696;SDS011;54486;51.442;6.778;2023-03-19T02:37:09;9.77;;;3.97;;
67696;SDS011;54486;51.442;6.778;2023-03-19T02:42:13;10.32;;;3.85;;
67696;SDS011;54486;51.442;6.778;2023-03-19T02:44:43;9.73;;;4.40;;
67696;SDS011;54486;51.442;6.778;2023-03-19T02:47:12;9.15;;;3.80;;
67696;SDS011;54486;51.442;6.778;2023-03-19T02:49:41;9.50;;;3.95;;
67696;SDS011;54486;51.442;6.778;2023-03-19T02:52:08;10.27;;;3.73;;
67696;SDS011;54486;51.442;6.778;2023-03-19T02:54:36;9.90;;;3.75;;
67696;SDS011;54486;51.442;6.778;2023-03-19T02:57:04;8.85;;;3.90;;
67696;SDS011;54486;51.442;6.778;2023-03-19T02:59:32;10.80;;;3.92;;
67696;SDS011;54486;51.442;6.778;2023-03-19T03:01:59;9.35;;;4.03;;
67696;SDS011;54486;51.442;6.778;2023-03-19T03:04:27;9.20;;;4.10;;
67696;SDS011;54486;51.442;6.778;2023-03-19T03:06:55;9.98;;;3.85;;
67696;SDS011;54486;51.442;6.778;2023-03-19T03:09:23;9.57;;;3.92;;
67696;SDS011;54486;51.442;6.778;2023-03-19T03:11:50;8.23;;;3.85;;
67696;SDS011;54486;51.442;6.778;2023-03-19T03:14:17;9.43;;;4.30;;
67696;SDS011;54486;51.442;6.778;2023-03-19T03:16:45;9.50;;;3.80;;
67696;SDS011;54486;51.442;6.778;2023-03-19T03:19:13;10.20;;;4.00;;
67696;SDS011;54486;51.442;6.778;2023-03-19T03:21:40;9.93;;;4.07;;
67696;SDS011;54486;51.442;6.778;2023-03-19T03:24:08;9.38;;;3.90;;
67696;SDS011;54486;51.442;6.778;2023-03-19T03:26:36;9.93;;;4.10;;
67696;SDS011;54486;51.442;6.778;2023-03-19T03:29:04;9.63;;;4.05;;
67696;SDS011;54486;51.442;6.778;2023-03-19T03:31:33;8.55;;;4.25;;
67696;SDS011;54486;51.442;6.778;2023-03-19T03:34:00;10.10;;;4.25;;
67696;SDS011;54486;51.442;6.778;2023-03-19T03:36:28;8.98;;;4.00;;
67696;SDS011;54486;51.442;6.778;2023-03-19T03:38:55;9.32;;;3.67;;
67696;SDS011;54486;51.442;6.778;2023-03-19T03:41:23;10.25;;;4.28;;
67696;SDS011;54486;51.442;6.778;2023-03-19T03:43:50;10.18;;;3.83;;
67696;SDS011;54486;51.442;6.778;2023-03-19T03:46:17;9.20;;;3.80;;
67696;SDS011;54486;51.442;6.778;2023-03-19T03:48:44;9.38;;;3.70;;
67696;SDS011;54486;51.442;6.778;2023-03-19T03:51:12;10.68;;;3.90;;
67696;SDS011;54486;51.442;6.778;2023-03-19T03:53:39;8.80;;;3.58;;
67696;SDS011;54486;51.442;6.778;2023-03-19T03:56:07;9.40;;;4.07;;
67696;SDS011;54486;51.442;6.778;2023-03-19T03:58:34;10.65;;;3.70;;
67696;SDS011;54486;51.442;6.778;2023-03-19T04:01:01;8.38;;;3.70;;
67696;SDS011;54486;51.442;6.778;2023-03-19T04:03:28;10.38;;;3.60;;
67696;SDS011;54486;51.442;6.778;2023-03-19T04:05:56;8.40;;;3.72;;
67696;SDS011;54486;51.442;6.778;2023-03-19T04:08:24;9.63;;;4.00;;
67696;SDS011;54486;51.442;6.778;2023-03-19T04:10:52;8.63;;;3.70;;
67696;SDS011;54486;51.442;6.778;2023-03-19T04:13:19;9.30;;;3.42;;
67696;SDS011;54486;51.442;6.778;2023-03-19T04:15:46;10.13;;;4.00;;
67696;SDS011;54486;51.442;6.778;2023-03-19T04:18:13;8.68;;;3.70;;
67696;SDS011;54486;51.442;6.778;2023-03-19T04:20:41;10.35;;;4.00;;
67696;SDS011;54486;51.442;6.778;2023-03-19T04:23:08;8.98;;;4.15;;
67696;SDS011;54486;51.442;6.778;2023-03-19T04:25:38;9.40;;;3.80;;
67696;SDS011;54486;51.442;6.778;2023-03-19T04:28:06;8.98;;;3.92;;
67696;SDS011;54486;51.442;6.778;2023-03-19T04:30:34;8.63;;;3.53;;
67696;SDS011;54486;51.442;6.778;2023-03-19T04:33:03;10.23;;;3.92;;
67696;SDS011;54486;51.442;6.778;2023-03-19T04:35:30;9.70;;;4.55;;
67696;SDS011;54486;51.442;6.778;2023-03-19T04:37:57;8.95;;;3.80;;
67696;SDS011;54486;51.442;6.778;2023-03-19T04:40:24;10.13;;;4.03;;
67696;SDS011;54486;51.442;6.778;2023-03-19T04:42:52;9.00;;;3.70;;
67696;SDS011;54486;51.442;6.778;2023-03-19T04:45:19;10.77;;;4.15;;
67696;SDS011;54486;51.442;6.778;2023-03-19T04:47:47;9.30;;;4.20;;
67696;SDS011;54486;51.442;6.778;2023-03-19T04:50:14;9.52;;;4.28;;
67696;SDS011;54486;51.442;6.778;2023-03-19T04:52:42;8.35;;;3.72;;
67696;SDS011;54486;51.442;6.778;2023-03-19T04:55:10;8.25;;;3.53;;
67696;SDS011;54486;51.442;6.778;2023-03-19T04:57:37;8.82;;;3.63;;
67696;SDS011;54486;51.442;6.778;2023-03-19T05:00:04;9.38;;;3.97;;
67696;SDS011;54486;51.442;6.778;2023-03-19T05:02:32;9.45;;;3.80;;
67696;SDS011;54486;51.442;6.778;2023-03-19T05:04:59;8.17;;;3.23;;
67696;SDS011;54486;51.442;6.778;2023-03-19T05:07:27;8.32;;;3.70;;
67696;SDS011;54486;51.442;6.778;2023-03-19T05:09:54;8.97;;;3.40;;
67696;SDS011;54486;51.442;6.778;2023-03-19T05:12:21;8.50;;;3.67;;
67696;SDS011;54486;51.442;6.778;2023-03-19T05:14:48;9.07;;;3.30;;
67696;SDS011;54486;51.442;6.778;2023-03-19T05:17:16;7.72;;;3.20;;
67696;SDS011;54486;51.442;6.778;2023-03-19T05:19:43;8.50;;;3.67;;
67696;SDS011;54486;51.442;6.778;2023-03-19T05:22:10;8.52;;;3.65;;
67696;SDS011;54486;51.442;6.778;2023-03-19T05:24:38;8.32;;;3.45;;
67696;SDS011;54486;51.442;6.778;2023-03-19T05:27:05;8.80;;;3.40;;
67696;SDS011;54486;51.442;6.778;2023-03-19T05:29:33;8.40;;;3.05;;
67696;SDS011;54486;51.442;6.778;2023-03-19T05:32:00;7.90;;;3.00;;
67696;SDS011;54486;51.442;6.778;2023-03-19T05:34:29;9.60;;;3.67;;
67696;SDS011;54486;51.442;6.778;2023-03-19T05:36:56;7.95;;;3.20;;
67696;SDS011;54486;51.442;6.778;2023-03-19T05:39:23;8.55;;;3.38;;
67696;SDS011;54486;51.442;6.778;2023-03-19T05:41:50;8.65;;;3.20;;
67696;SDS011;54486;51.442;6.778;2023-03-19T05:44:17;7.77;;;3.20;;
67696;SDS011;54486;51.442;6.778;2023-03-19T05:46:44;8.45;;;3.03;;
67696;SDS011;54486;51.442;6.778;2023-03-19T05:49:12;9.20;;;3.75;;
67696;SDS011;54486;51.442;6.778;2023-03-19T05:51:40;8.38;;;3.63;;
67696;SDS011;54486;51.442;6.778;2023-03-19T05:54:07;10.13;;;4.10;;
67696;SDS011;54486;51.442;6.778;2023-03-19T05:56:34;9.63;;;3.72;;
67696;SDS011;54486;51.442;6.778;2023-03-19T05:59:00;10.52;;;4.55;;
67696;SDS011;54486;51.442;6.778;2023-03-19T06:01:27;10.45;;;4.43;;
67696;SDS011;54486;51.442;6.778;2023-03-19T06:03:55;9.85;;;4.22;;
67696;SDS011;54486;51.442;6.778;2023-03-19T06:06:22;9.20;;;4.50;;
67696;SDS011;54486;51.442;6.778;2023-03-19T06:08:49;9.53;;;4.40;;
67696;SDS011;54486;51.442;6.778;2023-03-19T06:11:16;9.75;;;4.60;;
67696;SDS011;54486;51.442;6.778;2023-03-19T06:13:43;9.60;;;4.65;;
67696;SDS011;54486;51.442;6.778;2023-03-19T06:16:12;9.57;;;4.65;;
67696;SDS011;54486;51.442;6.778;2023-03-19T06:18:39;9.23;;;4.88;;
67696;SDS011;54486;51.442;6.778;2023-03-19T06:21:06;9.50;;;4.85;;
67696;SDS011;54486;51.442;6.778;2023-03-19T06:23:33;10.38;;;5.00;;
67696;SDS011;54486;51.442;6.778;2023-03-19T06:26:01;10.05;;;4.97;;
67696;SDS011;54486;51.442;6.778;2023-03-19T06:28:28;9.63;;;5.10;;
67696;SDS011;54486;51.442;6.778;2023-03-19T06:30:55;12.55;;;5.10;;
67696;SDS011;54486;51.442;6.778;2023-03-19T06:33:22;9.82;;;4.88;;
67696;SDS011;54486;51.442;6.778;2023-03-19T06:35:53;9.73;;;4.30;;
67696;SDS011;54486;51.442;6.778;2023-03-19T06:38:20;9.45;;;4.35;;
67696;SDS011;54486;51.442;6.778;2023-03-19T06:40:47;9.30;;;3.85;;
67696;SDS011;54486;51.442;6.778;2023-03-19T06:43:14;7.95;;;3.85;;
67696;SDS011;54486;51.442;6.778;2023-03-19T06:45:43;8.40;;;3.97;;
67696;SDS011;54486;51.442;6.778;2023-03-19T06:48:10;8.15;;;3.90;;
67696;SDS011;54486;51.442;6.778;2023-03-19T06:50:37;8.65;;;3.88;;
67696;SDS011;54486;51.442;6.778;2023-03-19T06:53:04;10.17;;;4.07;;
67696;SDS011;54486;51.442;6.778;2023-03-19T06:55:31;8.52;;;3.72;;
67696;SDS011;54486;51.442;6.778;2023-03-19T06:57:58;9.50;;;3.37;;
67696;SDS011;54486;51.442;6.778;2023-03-19T07:00:25;8.73;;;4.10;;
67696;SDS011;54486;51.442;6.778;2023-03-19T07:02:53;8.52;;;3.70;;
67696;SDS011;54486;51.442;6.778;2023-03-19T07:05:20;10.40;;;4.20;;
67696;SDS011;54486;51.442;6.778;2023-03-19T07:07:47;7.65;;;3.45;;
67696;SDS011;54486;51.442;6.778;2023-03-19T07:10:16;10.13;;;3.73;;
67696;SDS011;54486;51.442;6.778;2023-03-19T07:12:44;8.00;;;3.67;;
67696;SDS011;54486;51.442;6.778;2023-03-19T07:15:12;8.60;;;3.85;;
67696;SDS011;54486;51.442;6.778;2023-03-19T07:17:39;8.23;;;3.60;;
67696;SDS011;54486;51.442;6.778;2023-03-19T07:20:07;9.38;;;4.00;;
67696;SDS011;54486;51.442;6.778;2023-03-19T07:22:34;8.82;;;3.60;;
67696;SDS011;54486;51.442;6.778;2023-03-19T07:25:02;9.05;;;3.53;;
67696;SDS011;54486;51.442;6.778;2023-03-19T07:27:29;9.05;;;3.58;;
67696;SDS011;54486;51.442;6.778;2023-03-19T07:29:56;7.57;;;3.50;;
67696;SDS011;54486;51.442;6.778;2023-03-19T07:32:23;9.13;;;4.27;;
67696;SDS011;54486;51.442;6.778;2023-03-19T07:34:50;9.00;;;3.97;;
67696;SDS011;54486;51.442;6.778;2023-03-19T07:37:17;9.45;;;4.28;;
67696;SDS011;54486;51.442;6.778;2023-03-19T07:39:49;9.65;;;4.40;;
67696;SDS011;54486;51.442;6.778;2023-03-19T07:42:17;10.43;;;4.25;;
67696;SDS011;54486;51.442;6.778;2023-03-19T07:44:43;10.43;;;4.47;;
67696;SDS011;54486;51.442;6.778;2023-03-19T07:47:11;10.37;;;4.33;;
67696;SDS011;54486;51.442;6.778;2023-03-19T07:49:53;10.23;;;4.53;;
67696;SDS011;54486;51.442;6.778;2023-03-19T07:52:22;10.75;;;5.00;;
67696;SDS011;54486;51.442;6.778;2023-03-19T07:54:49;10.65;;;5.30;;
67696;SDS011;54486;51.442;6.778;2023-03-19T07:57:17;10.30;;;4.55;;
67696;SDS011;54486;51.442;6.778;2023-03-19T07:59:44;11.23;;;4.87;;
67696;SDS011;54486;51.442;6.778;2023-03-19T08:02:13;10.00;;;4.80;;
67696;SDS011;54486;51.442;6.778;2023-03-19T08:04:40;9.93;;;4.70;;
67696;SDS011;54486;51.442;6.778;2023-03-19T08:07:08;10.27;;;4.40;;
67696;SDS011;54486;51.442;6.778;2023-03-19T08:09:38;9.45;;;4.43;;
67696;SDS011;54486;51.442;6.778;2023-03-19T08:12:06;9.07;;;3.87;;
67696;SDS011;54486;51.442;6.778;2023-03-19T08:14:33;8.85;;;4.10;;
67696;SDS011;54486;51.442;6.778;2023-03-19T08:17:01;8.95;;;4.13;;
67696;SDS011;54486;51.442;6.778;2023-03-19T08:19:29;9.82;;;4.70;;
67696;SDS011;54486;51.442;6.778;2023-03-19T08:21:56;9.25;;;4.00;;
67696;SDS011;54486;51.442;6.778;2023-03-19T08:24:23;10.43;;;4.60;;
67696;SDS011;54486;51.442;6.778;2023-03-19T08:26:50;9.48;;;4.13;;
67696;SDS011;54486;51.442;6.778;2023-03-19T08:29:17;9.97;;;4.10;;
67696;SDS011;54486;51.442;6.778;2023-03-19T08:31:45;9.93;;;4.40;;
67696;SDS011;54486;51.442;6.778;2023-03-19T08:34:12;9.05;;;4.30;;
67696;SDS011;54486;51.442;6.778;2023-03-19T08:36:40;9.45;;;3.80;;
67696;SDS011;54486;51.442;6.778;2023-03-19T08:39:07;9.27;;;4.20;;
67696;SDS011;54486;51.442;6.778;2023-03-19T08:41:34;8.73;;;4.53;;
67696;SDS011;54486;51.442;6.778;2023-03-19T08:44:00;10.23;;;4.80;;
67696;SDS011;54486;51.442;6.778;2023-03-19T08:46:28;10.60;;;5.20;;
67696;SDS011;54486;51.442;6.778;2023-03-19T08:48:55;10.98;;;5.45;;
67696;SDS011;54486;51.442;6.778;2023-03-19T08:51:22;11.02;;;4.95;;
67696;SDS011;54486;51.442;6.778;2023-03-19T08:53:51;10.45;;;5.00;;
67696;SDS011;54486;51.442;6.778;2023-03-19T08:56:19;9.90;;;5.38;;
67696;SDS011;54486;51.442;6.778;2023-03-19T08:58:46;9.68;;;4.63;;
67696;SDS011;54486;51.442;6.778;2023-03-19T09:01:14;11.77;;;6.37;;
67696;SDS011;54486;51.442;6.778;2023-03-19T09:03:42;10.45;;;4.93;;
67696;SDS011;54486;51.442;6.778;2023-03-19T09:06:11;10.23;;;4.55;;
67696;SDS011;54486;51.442;6.778;2023-03-19T09:08:39;9.18;;;4.32;;
67696;SDS011;54486;51.442;6.778;2023-03-19T09:11:08;9.57;;;4.68;;
67696;SDS011;54486;51.442;6.778;2023-03-19T09:13:36;9.50;;;4.57;;
67696;SDS011;54486;51.442;6.778;2023-03-19T09:16:04;10.35;;;4.57;;
67696;SDS011;54486;51.442;6.778;2023-03-19T09:18:32;10.15;;;5.00;;
67696;SDS011;54486;51.442;6.778;2023-03-19T09:21:02;9.63;;;4.32;;
67696;SDS011;54486;51.442;6.778;2023-03-19T09:23:29;9.02;;;4.32;;
67696;SDS011;54486;51.442;6.778;2023-03-19T09:25:57;10.87;;;4.83;;
67696;SDS011;54486;51.442;6.778;2023-03-19T09:28:25;10.27;;;5.38;;
67696;SDS011;54486;51.442;6.778;2023-03-19T09:30:53;10.93;;;5.43;;
67696;SDS011;54486;51.442;6.778;2023-03-19T09:33:20;11.02;;;5.30;;
67696;SDS011;54486;51.442;6.778;2023-03-19T09:35:48;10.67;;;4.80;;
67696;SDS011;54486;51.442;6.778;2023-03-19T09:38:19;9.77;;;4.63;;
67696;SDS011;54486;51.442;6.778;2023-03-19T09:41:00;9.07;;;4.10;;
67696;SDS011;54486;51.442;6.778;2023-03-19T09:43:56;8.82;;;4.40;;
67696;SDS011;54486;51.442;6.778;2023-03-19T09:49:20;8.57;;;4.20;;
67696;SDS011;54486;51.442;6.778;2023-03-19T09:51:51;10.23;;;4.17;;
67696;SDS011;54486;51.442;6.778;2023-03-19T09:56:54;9.98;;;4.68;;
67696;SDS011;54486;51.442;6.778;2023-03-19T09:59:23;8.82;;;4.10;;
67696;SDS011;54486;51.442;6.778;2023-03-19T10:10:25;9.20;;;4.13;;
67696;SDS011;54486;51.442;6.778;2023-03-19T10:13:55;8.82;;;4.25;;
67696;SDS011;54486;51.442;6.778;2023-03-19T10:16:26;8.30;;;4.00;;
67696;SDS011;54486;51.442;6.778;2023-03-19T10:18:57;7.68;;;3.38;;
67696;SDS011;54486;51.442;6.778;2023-03-19T10:21:38;7.57;;;3.00;;
67696;SDS011;54486;51.442;6.778;2023-03-19T10:24:12;7.57;;;3.47;;
67696;SDS011;54486;51.442;6.778;2023-03-19T10:26:47;8.33;;;4.10;;
67696;SDS011;54486;51.442;6.778;2023-03-19T10:29:22;8.00;;;3.65;;
67696;SDS011;54486;51.442;6.778;2023-03-19T10:34:45;9.93;;;4.50;;
67696;SDS011;54486;51.442;6.778;2023-03-19T10:37:17;8.80;;;4.28;;
67696;SDS011;54486;51.442;6.778;2023-03-19T10:39:47;8.80;;;4.10;;
67696;SDS011;54486;51.442;6.778;2023-03-19T10:45:23;8.95;;;3.58;;
67696;SDS011;54486;51.442;6.778;2023-03-19T10:48:00;9.25;;;4.22;;
67696;SDS011;54486;51.442;6.778;2023-03-19T10:53:06;10.45;;;4.88;;
67696;SDS011;54486;51.442;6.778;2023-03-19T10:55:59;10.35;;;5.53;;
67696;SDS011;54486;51.442;6.778;2023-03-19T10:58:32;11.15;;;5.38;;
67696;SDS011;54486;51.442;6.778;2023-03-19T11:01:09;10.00;;;5.65;;
67696;SDS011;54486;51.442;6.778;2023-03-19T11:03:39;10.77;;;5.63;;
67696;SDS011;54486;51.442;6.778;2023-03-19T11:11:43;10.57;;;5.43;;
67696;SDS011;54486;51.442;6.778;2023-03-19T11:14:17;11.27;;;5.50;;
67696;SDS011;54486;51.442;6.778;2023-03-19T11:16:57;10.63;;;5.05;;
67696;SDS011;54486;51.442;6.778;2023-03-19T11:19:38;10.60;;;5.03;;
67696;SDS011;54486;51.442;6.778;2023-03-19T11:27:18;9.70;;;4.53;;
67696;SDS011;54486;51.442;6.778;2023-03-19T11:29:54;9.63;;;4.60;;
67696;SDS011;54486;51.442;6.778;2023-03-19T11:46:24;9.80;;;4.53;;
67696;SDS011;54486;51.442;6.778;2023-03-19T11:49:07;10.18;;;4.70;;
67696;SDS011;54486;51.442;6.778;2023-03-19T11:51:49;11.30;;;4.85;;
67696;SDS011;54486;51.442;6.778;2023-03-19T11:54:30;9.73;;;4.57;;
67696;SDS011;54486;51.442;6.778;2023-03-19T11:57:42;10.10;;;4.43;;
67696;SDS011;54486;51.442;6.778;2023-03-19T12:06:18;10.75;;;4.97;;
67696;SDS011;54486;51.442;6.778;2023-03-19T12:09:00;10.15;;;5.10;;
67696;SDS011;54486;51.442;6.778;2023-03-19T12:28:22;9.82;;;4.72;;
67696;SDS011;54486;51.442;6.778;2023-03-19T12:34:04;8.82;;;4.22;;
67696;SDS011;54486;51.442;6.778;2023-03-19T12:39:53;8.82;;;4.25;;
67696;SDS011;54486;51.442;6.778;2023-03-19T12:42:28;9.48;;;4.45;;
67696;SDS011;54486;51.442;6.778;2023-03-19T12:44:58;9.27;;;4.60;;
67696;SDS011;54486;51.442;6.778;2023-03-19T12:47:30;10.00;;;4.38;;
67696;SDS011;54486;51.442;6.778;2023-03-19T12:50:03;8.68;;;4.30;;
67696;SDS011;54486;51.442;6.778;2023-03-19T12:52:38;9.85;;;4.18;;
67696;SDS011;54486;51.442;6.778;2023-03-19T12:58:17;8.77;;;3.28;;
67696;SDS011;54486;51.442;6.778;2023-03-19T13:00:52;8.00;;;3.40;;
67696;SDS011;54486;51.442;6.778;2023-03-19T13:03:33;8.30;;;2.80;;
67696;SDS011;54486;51.442;6.778;2023-03-19T13:06:56;8.47;;;3.60;;
67696;SDS011;54486;51.442;6.778;2023-03-19T13:09:35;8.45;;;3.28;;
67696;SDS011;54486;51.442;6.778;2023-03-19T13:12:21;9.32;;;3.38;;
67696;SDS011;54486;51.442;6.778;2023-03-19T13:23:19;8.75;;;2.92;;
67696;SDS011;54486;51.442;6.778;2023-03-19T13:25:59;8.48;;;2.85;;
67696;SDS011;54486;51.442;6.778;2023-03-19T13:28:34;8.25;;;2.80;;
67696;SDS011;54486;51.442;6.778;2023-03-19T13:31:25;7.47;;;3.00;;
67696;SDS011;54486;51.442;6.778;2023-03-19T13:36:34;7.55;;;2.75;;
67696;SDS011;54486;51.442;6.778;2023-03-19T13:39:24;7.28;;;2.78;;
67696;SDS011;54486;51.442;6.778;2023-03-19T13:42:21;8.10;;;3.00;;
67696;SDS011;54486;51.442;6.778;2023-03-19T13:47:56;7.93;;;3.13;;
67696;SDS011;54486;51.442;6.778;2023-03-19T13:55:58;7.93;;;2.85;;
67696;SDS011;54486;51.442;6.778;2023-03-19T13:58:49;7.20;;;2.75;;
67696;SDS011;54486;51.442;6.778;2023-03-19T14:03:57;9.27;;;2.90;;
67696;SDS011;54486;51.442;6.778;2023-03-19T14:17:21;7.60;;;3.50;;
67696;SDS011;54486;51.442;6.778;2023-03-19T14:19:50;8.00;;;3.43;;
67696;SDS011;54486;51.442;6.778;2023-03-19T14:22:20;8.30;;;3.78;;
67696;SDS011;54486;51.442;6.778;2023-03-19T14:25:10;8.25;;;3.80;;
67696;SDS011;54486;51.442;6.778;2023-03-19T14:27:49;8.38;;;3.20;;
67696;SDS011;54486;51.442;6.778;2023-03-19T14:30:26;8.70;;;3.58;;
67696;SDS011;54486;51.442;6.778;2023-03-19T14:33:25;8.65;;;3.70;;
67696;SDS011;54486;51.442;6.778;2023-03-19T14:36:01;8.38;;;3.78;;
67696;SDS011;54486;51.442;6.778;2023-03-19T14:38:34;9.40;;;3.63;;
67696;SDS011;54486;51.442;6.778;2023-03-19T14:41:13;9.18;;;3.67;;
67696;SDS011;54486;51.442;6.778;2023-03-19T14:52:35;8.80;;;3.58;;
67696;SDS011;54486;51.442;6.778;2023-03-19T14:55:10;8.57;;;3.30;;
67696;SDS011;54486;51.442;6.778;2023-03-19T14:57:40;7.80;;;3.05;;
67696;SDS011;54486;51.442;6.778;2023-03-19T15:00:11;8.55;;;3.28;;
67696;SDS011;54486;51.442;6.778;2023-03-19T15:02:42;7.13;;;2.63;;
67696;SDS011;54486;51.442;6.778;2023-03-19T15:05:17;7.85;;;2.95;;
67696;SDS011;54486;51.442;6.778;2023-03-19T15:08:01;7.97;;;3.03;;
67696;SDS011;54486;51.442;6.778;2023-03-19T15:10:34;7.47;;;2.67;;
67696;SDS011;54486;51.442;6.778;2023-03-19T15:18:16;7.72;;;3.15;;
67696;SDS011;54486;51.442;6.778;2023-03-19T15:20:49;8.18;;;2.90;;
67696;SDS011;54486;51.442;6.778;2023-03-19T15:23:23;7.90;;;2.85;;
67696;SDS011;54486;51.442;6.778;2023-03-19T15:25:57;7.45;;;2.95;;
67696;SDS011;54486;51.442;6.778;2023-03-19T15:28:28;8.40;;;3.00;;
67696;SDS011;54486;51.442;6.778;2023-03-19T15:31:04;7.65;;;2.85;;
67696;SDS011;54486;51.442;6.778;2023-03-19T15:33:52;8.00;;;2.90;;
67696;SDS011;54486;51.442;6.778;2023-03-19T15:39:00;8.25;;;2.95;;
67696;SDS011;54486;51.442;6.778;2023-03-19T15:41:34;8.60;;;3.00;;
67696;SDS011;54486;51.442;6.778;2023-03-19T15:44:07;7.75;;;2.88;;
67696;SDS011;54486;51.442;6.778;2023-03-19T15:46:39;8.40;;;2.95;;
67696;SDS011;54486;51.442;6.778;2023-03-19T15:49:16;7.97;;;3.05;;
67696;SDS011;54486;51.442;6.778;2023-03-19T15:52:05;7.70;;;3.25;;
67696;SDS011;54486;51.442;6.778;2023-03-19T15:54:37;9.20;;;3.38;;
67696;SDS011;54486;51.442;6.778;2023-03-19T15:57:04;7.90;;;3.50;;
67696;SDS011;54486;51.442;6.778;2023-03-19T15:59:34;9.98;;;3.85;;
67696;SDS011;54486;51.442;6.778;2023-03-19T16:02:02;11.33;;;3.93;;
67696;SDS011;54486;51.442;6.778;2023-03-19T16:04:41;9.52;;;3.90;;
67696;SDS011;54486;51.442;6.778;2023-03-19T16:09:58;9.60;;;3.78;;
67696;SDS011;54486;51.442;6.778;2023-03-19T16:12:30;9.38;;;3.78;;
67696;SDS011;54486;51.442;6.778;2023-03-19T16:18:07;9.80;;;3.70;;
67696;SDS011;54486;51.442;6.778;2023-03-19T16:21:00;10.07;;;3.42;;
67696;SDS011;54486;51.442;6.778;2023-03-19T16:23:37;8.60;;;3.50;;
67696;SDS011;54486;51.442;6.778;2023-03-19T16:28:45;9.05;;;2.92;;
67696;SDS011;54486;51.442;6.778;2023-03-19T16:31:21;8.30;;;3.00;;
67696;SDS011;54486;51.442;6.778;2023-03-19T16:33:51;8.52;;;2.67;;
67696;SDS011;54486;51.442;6.778;2023-03-19T16:36:19;8.77;;;3.20;;
67696;SDS011;54486;51.442;6.778;2023-03-19T16:38:54;8.93;;;3.00;;
67696;SDS011;54486;51.442;6.778;2023-03-19T16:41:30;8.15;;;3.50;;
67696;SDS011;54486;51.442;6.778;2023-03-19T16:44:27;9.95;;;2.97;;
67696;SDS011;54486;51.442;6.778;2023-03-19T16:46:57;8.40;;;3.23;;
67696;SDS011;54486;51.442;6.778;2023-03-19T16:49:25;9.10;;;3.10;;
67696;SDS011;54486;51.442;6.778;2023-03-19T16:51:52;8.20;;;3.05;;
67696;SDS011;54486;51.442;6.778;2023-03-19T16:54:20;8.27;;;3.40;;
67696;SDS011;54486;51.442;6.778;2023-03-19T16:56:47;9.13;;;3.13;;
67696;SDS011;54486;51.442;6.778;2023-03-19T16:59:18;9.25;;;3.70;;
67696;SDS011;54486;51.442;6.778;2023-03-19T17:01:47;10.57;;;3.73;;
67696;SDS011;54486;51.442;6.778;2023-03-19T17:04:14;10.23;;;3.92;;
67696;SDS011;54486;51.442;6.778;2023-03-19T17:06:44;9.40;;;4.10;;
67696;SDS011;54486;51.442;6.778;2023-03-19T17:09:14;10.68;;;3.25;;
67696;SDS011;54486;51.442;6.778;2023-03-19T17:11:42;8.67;;;3.07;;
67696;SDS011;54486;51.442;6.778;2023-03-19T17:14:14;9.55;;;2.90;;
67696;SDS011;54486;51.442;6.778;2023-03-19T17:16:45;8.23;;;2.70;;
67696;SDS011;54486;51.442;6.778;2023-03-19T17:19:16;10.32;;;2.80;;
67696;SDS011;54486;51.442;6.778;2023-03-19T17:21:49;9.77;;;2.70;;
67696;SDS011;54486;51.442;6.778;2023-03-19T17:26:49;8.27;;;2.60;;
67696;SDS011;54486;51.442;6.778;2023-03-19T17:29:17;8.75;;;2.53;;